sensor_id;sensor_type;location;lat;lon;timestamp;P1;durP1;ratioP1;P2;durP2;ratioP2
26040;SDS011;13816;53.628;9.950;2023-03-13T00:00:19;50.37;;;9.23;;
26040;SDS011;13816;53.628;9.950;2023-03-13T00:06:15;53.90;;;11.40;;
26040;SDS011;13816;53.628;9.950;2023-03-13T00:08:42;34.20;;;9.67;;
26040;SDS011;13816;53.628;9.950;2023-03-13T00:11:11;47.33;;;8.83;;
26040;SDS011;13816;53.628;9.950;2023-03-13T00:13:38;46.10;;;8.97;;
26040;SDS011;13816;53.628;9.950;2023-03-13T00:16:08;41.27;;;10.33;;
26040;SDS011;13816;53.628;9.950;2023-03-13T00:18:34;33.03;;;8.23;;
26040;SDS011;13816;53.628;9.950;2023-03-13T00:21:01;45.80;;;9.10;;
26040;SDS011;13816;53.628;9.950;2023-03-13T00:23:28;42.07;;;9.40;;
26040;SDS011;13816;53.628;9.950;2023-03-13T00:25:58;30.43;;;8.27;;
26040;SDS011;13816;53.628;9.950;2023-03-13T00:28:24;33.50;;;9.10;;
26040;SDS011;13816;53.628;9.950;2023-03-13T00:30:50;34.40;;;9.10;;
26040;SDS011;13816;53.628;9.950;2023-03-13T00:33:16;38.53;;;8.97;;
26040;SDS011;13816;53.628;9.950;2023-03-13T00:35:42;30.77;;;8.70;;
26040;SDS011;13816;53.628;9.950;2023-03-13T00:38:08;41.83;;;9.50;;
26040;SDS011;13816;53.628;9.950;2023-03-13T00:40:34;51.80;;;9.37;;
26040;SDS011;13816;53.628;9.950;2023-03-13T00:43:02;44.10;;;9.93;;
26040;SDS011;13816;53.628;9.950;2023-03-13T00:45:28;30.17;;;7.57;;
26040;SDS011;13816;53.628;9.950;2023-03-13T00:47:54;55.83;;;10.00;;
26040;SDS011;13816;53.628;9.950;2023-03-13T00:50:20;46.43;;;9.23;;
26040;SDS011;13816;53.628;9.950;2023-03-13T00:52:46;33.97;;;9.20;;
26040;SDS011;13816;53.628;9.950;2023-03-13T00:55:13;34.70;;;8.93;;
26040;SDS011;13816;53.628;9.950;2023-03-13T00:57:39;37.37;;;9.10;;
26040;SDS011;13816;53.628;9.950;2023-03-13T01:00:05;46.43;;;10.23;;
26040;SDS011;13816;53.628;9.950;2023-03-13T01:02:31;37.97;;;9.77;;
26040;SDS011;13816;53.628;9.950;2023-03-13T01:05:01;29.67;;;8.33;;
26040;SDS011;13816;53.628;9.950;2023-03-13T01:07:28;33.27;;;8.70;;
26040;SDS011;13816;53.628;9.950;2023-03-13T01:09:54;40.07;;;8.70;;
26040;SDS011;13816;53.628;9.950;2023-03-13T01:12:20;44.90;;;9.60;;
26040;SDS011;13816;53.628;9.950;2023-03-13T01:14:48;38.10;;;9.00;;
26040;SDS011;13816;53.628;9.950;2023-03-13T01:17:15;30.97;;;8.43;;
26040;SDS011;13816;53.628;9.950;2023-03-13T01:19:41;44.00;;;9.87;;
26040;SDS011;13816;53.628;9.950;2023-03-13T01:22:07;32.03;;;8.60;;
26040;SDS011;13816;53.628;9.950;2023-03-13T01:24:36;34.60;;;8.83;;
26040;SDS011;13816;53.628;9.950;2023-03-13T01:27:03;41.90;;;8.50;;
26040;SDS011;13816;53.628;9.950;2023-03-13T01:29:29;45.57;;;9.77;;
26040;SDS011;13816;53.628;9.950;2023-03-13T01:31:55;43.00;;;9.90;;
26040;SDS011;13816;53.628;9.950;2023-03-13T01:34:23;38.07;;;11.97;;
26040;SDS011;13816;53.628;9.950;2023-03-13T01:36:50;43.80;;;10.40;;
26040;SDS011;13816;53.628;9.950;2023-03-13T01:39:16;39.40;;;9.70;;
26040;SDS011;13816;53.628;9.950;2023-03-13T01:41:42;31.60;;;8.57;;
26040;SDS011;13816;53.628;9.950;2023-03-13T01:44:17;35.73;;;9.40;;
26040;SDS011;13816;53.628;9.950;2023-03-13T01:46:44;34.40;;;9.93;;
26040;SDS011;13816;53.628;9.950;2023-03-13T01:49:23;36.97;;;11.13;;
26040;SDS011;13816;53.628;9.950;2023-03-13T01:52:02;40.60;;;10.07;;
26040;SDS011;13816;53.628;9.950;2023-03-13T01:57:05;40.20;;;10.63;;
26040;SDS011;13816;53.628;9.950;2023-03-13T01:59:36;44.70;;;9.50;;
26040;SDS011;13816;53.628;9.950;2023-03-13T02:02:04;35.83;;;10.40;;
26040;SDS011;13816;53.628;9.950;2023-03-13T02:04:34;39.07;;;8.50;;
26040;SDS011;13816;53.628;9.950;2023-03-13T02:07:03;45.97;;;10.17;;
26040;SDS011;13816;53.628;9.950;2023-03-13T02:09:30;47.60;;;9.93;;
26040;SDS011;13816;53.628;9.950;2023-03-13T02:12:03;40.17;;;9.77;;
26040;SDS011;13816;53.628;9.950;2023-03-13T02:14:32;53.90;;;10.20;;
26040;SDS011;13816;53.628;9.950;2023-03-13T02:16:59;41.60;;;9.40;;
26040;SDS011;13816;53.628;9.950;2023-03-13T02:19:35;45.40;;;9.90;;
26040;SDS011;13816;53.628;9.950;2023-03-13T02:27:32;45.97;;;10.20;;
26040;SDS011;13816;53.628;9.950;2023-03-13T02:29:59;40.23;;;9.20;;
26040;SDS011;13816;53.628;9.950;2023-03-13T02:32:26;32.03;;;11.20;;
26040;SDS011;13816;53.628;9.950;2023-03-13T02:34:53;37.30;;;8.40;;
26040;SDS011;13816;53.628;9.950;2023-03-13T02:37:21;41.33;;;10.93;;
26040;SDS011;13816;53.628;9.950;2023-03-13T02:39:49;25.83;;;8.20;;
26040;SDS011;13816;53.628;9.950;2023-03-13T02:42:16;36.57;;;8.90;;
26040;SDS011;13816;53.628;9.950;2023-03-13T02:44:44;34.70;;;7.77;;
26040;SDS011;13816;53.628;9.950;2023-03-13T02:47:11;40.50;;;8.47;;
26040;SDS011;13816;53.628;9.950;2023-03-13T02:49:37;46.00;;;8.80;;
26040;SDS011;13816;53.628;9.950;2023-03-13T02:52:16;41.90;;;10.30;;
26040;SDS011;13816;53.628;9.950;2023-03-13T02:54:43;32.43;;;9.33;;
26040;SDS011;13816;53.628;9.950;2023-03-13T02:57:10;44.83;;;9.73;;
26040;SDS011;13816;53.628;9.950;2023-03-13T02:59:38;37.40;;;7.90;;
26040;SDS011;13816;53.628;9.950;2023-03-13T03:02:04;29.10;;;7.77;;
26040;SDS011;13816;53.628;9.950;2023-03-13T03:04:30;36.63;;;8.80;;
26040;SDS011;13816;53.628;9.950;2023-03-13T03:06:56;37.00;;;8.77;;
26040;SDS011;13816;53.628;9.950;2023-03-13T03:09:23;46.60;;;8.90;;
26040;SDS011;13816;53.628;9.950;2023-03-13T03:11:53;45.30;;;8.43;;
26040;SDS011;13816;53.628;9.950;2023-03-13T03:14:20;38.20;;;9.10;;
26040;SDS011;13816;53.628;9.950;2023-03-13T03:16:47;32.43;;;8.17;;
26040;SDS011;13816;53.628;9.950;2023-03-13T03:19:13;41.40;;;8.27;;
26040;SDS011;13816;53.628;9.950;2023-03-13T03:21:39;37.13;;;7.83;;
26040;SDS011;13816;53.628;9.950;2023-03-13T03:24:05;40.07;;;7.80;;
26040;SDS011;13816;53.628;9.950;2023-03-13T03:26:31;40.10;;;7.40;;
26040;SDS011;13816;53.628;9.950;2023-03-13T03:28:58;47.73;;;7.83;;
26040;SDS011;13816;53.628;9.950;2023-03-13T03:31:24;32.33;;;8.03;;
26040;SDS011;13816;53.628;9.950;2023-03-13T03:33:51;37.90;;;8.83;;
26040;SDS011;13816;53.628;9.950;2023-03-13T03:36:19;32.67;;;7.30;;
26040;SDS011;13816;53.628;9.950;2023-03-13T03:38:47;47.30;;;8.30;;
26040;SDS011;13816;53.628;9.950;2023-03-13T03:41:16;36.50;;;7.27;;
26040;SDS011;13816;53.628;9.950;2023-03-13T03:43:43;32.43;;;7.47;;
26040;SDS011;13816;53.628;9.950;2023-03-13T03:46:13;36.27;;;7.20;;
26040;SDS011;13816;53.628;9.950;2023-03-13T03:48:39;38.60;;;7.20;;
26040;SDS011;13816;53.628;9.950;2023-03-13T03:51:07;36.30;;;6.10;;
26040;SDS011;13816;53.628;9.950;2023-03-13T03:53:37;39.13;;;7.60;;
26040;SDS011;13816;53.628;9.950;2023-03-13T03:56:04;29.97;;;6.57;;
26040;SDS011;13816;53.628;9.950;2023-03-13T03:58:30;30.83;;;7.30;;
26040;SDS011;13816;53.628;9.950;2023-03-13T04:01:11;36.27;;;7.20;;
26040;SDS011;13816;53.628;9.950;2023-03-13T04:03:39;26.53;;;7.40;;
26040;SDS011;13816;53.628;9.950;2023-03-13T04:06:05;23.00;;;7.20;;
26040;SDS011;13816;53.628;9.950;2023-03-13T04:08:31;29.87;;;6.80;;
26040;SDS011;13816;53.628;9.950;2023-03-13T04:11:01;32.30;;;7.00;;
26040;SDS011;13816;53.628;9.950;2023-03-13T04:13:32;49.87;;;8.70;;
26040;SDS011;13816;53.628;9.950;2023-03-13T04:15:58;45.17;;;8.33;;
26040;SDS011;13816;53.628;9.950;2023-03-13T04:18:24;35.90;;;7.60;;
26040;SDS011;13816;53.628;9.950;2023-03-13T04:20:58;33.33;;;6.37;;
26040;SDS011;13816;53.628;9.950;2023-03-13T04:23:24;42.93;;;7.57;;
26040;SDS011;13816;53.628;9.950;2023-03-13T04:25:50;23.13;;;6.93;;
26040;SDS011;13816;53.628;9.950;2023-03-13T04:28:17;38.57;;;7.30;;
26040;SDS011;13816;53.628;9.950;2023-03-13T04:30:43;35.20;;;7.33;;
26040;SDS011;13816;53.628;9.950;2023-03-13T04:33:24;33.50;;;7.57;;
26040;SDS011;13816;53.628;9.950;2023-03-13T04:36:14;34.60;;;8.10;;
26040;SDS011;13816;53.628;9.950;2023-03-13T04:39:06;32.20;;;7.87;;
26040;SDS011;13816;53.628;9.950;2023-03-13T04:41:53;37.67;;;6.37;;
26040;SDS011;13816;53.628;9.950;2023-03-13T04:44:33;31.63;;;6.93;;
26040;SDS011;13816;53.628;9.950;2023-03-13T04:47:11;32.53;;;6.77;;
26040;SDS011;13816;53.628;9.950;2023-03-13T04:49:46;32.53;;;6.90;;
26040;SDS011;13816;53.628;9.950;2023-03-13T04:52:35;29.70;;;7.13;;
26040;SDS011;13816;53.628;9.950;2023-03-13T04:55:25;36.00;;;7.37;;
26040;SDS011;13816;53.628;9.950;2023-03-13T04:57:59;30.17;;;6.70;;
26040;SDS011;13816;53.628;9.950;2023-03-13T05:00:52;26.47;;;7.57;;
26040;SDS011;13816;53.628;9.950;2023-03-13T05:03:41;33.03;;;7.17;;
26040;SDS011;13816;53.628;9.950;2023-03-13T05:06:28;30.30;;;6.13;;
26040;SDS011;13816;53.628;9.950;2023-03-13T05:09:17;34.10;;;7.23;;
26040;SDS011;13816;53.628;9.950;2023-03-13T05:11:55;32.20;;;6.60;;
26040;SDS011;13816;53.628;9.950;2023-03-13T05:14:39;39.37;;;6.80;;
26040;SDS011;13816;53.628;9.950;2023-03-13T05:17:23;44.40;;;7.73;;
26040;SDS011;13816;53.628;9.950;2023-03-13T05:20:09;34.53;;;7.07;;
26040;SDS011;13816;53.628;9.950;2023-03-13T05:22:44;31.50;;;7.60;;
26040;SDS011;13816;53.628;9.950;2023-03-13T05:25:30;35.33;;;6.70;;
26040;SDS011;13816;53.628;9.950;2023-03-13T05:28:10;29.40;;;7.40;;
26040;SDS011;13816;53.628;9.950;2023-03-13T05:31:05;32.07;;;7.27;;
26040;SDS011;13816;53.628;9.950;2023-03-13T05:33:42;26.00;;;7.53;;
26040;SDS011;13816;53.628;9.950;2023-03-13T05:36:28;24.90;;;6.10;;
26040;SDS011;13816;53.628;9.950;2023-03-13T05:39:13;34.00;;;6.60;;
26040;SDS011;13816;53.628;9.950;2023-03-13T05:42:11;29.20;;;5.93;;
26040;SDS011;13816;53.628;9.950;2023-03-13T05:44:46;23.20;;;5.57;;
26040;SDS011;13816;53.628;9.950;2023-03-13T05:47:41;17.60;;;4.80;;
26040;SDS011;13816;53.628;9.950;2023-03-13T05:50:33;20.83;;;5.63;;
26040;SDS011;13816;53.628;9.950;2023-03-13T05:53:28;15.57;;;4.50;;
26040;SDS011;13816;53.628;9.950;2023-03-13T05:56:20;10.50;;;4.53;;
26040;SDS011;13816;53.628;9.950;2023-03-13T05:58:55;16.90;;;3.90;;
26040;SDS011;13816;53.628;9.950;2023-03-13T06:01:39;9.53;;;3.83;;
26040;SDS011;13816;53.628;9.950;2023-03-13T06:04:28;12.43;;;3.90;;
26040;SDS011;13816;53.628;9.950;2023-03-13T06:06:55;10.67;;;3.57;;
26040;SDS011;13816;53.628;9.950;2023-03-13T06:09:22;7.20;;;2.50;;
26040;SDS011;13816;53.628;9.950;2023-03-13T06:11:49;12.63;;;3.23;;
26040;SDS011;13816;53.628;9.950;2023-03-13T06:14:16;8.70;;;2.90;;
26040;SDS011;13816;53.628;9.950;2023-03-13T06:16:54;5.23;;;2.47;;
26040;SDS011;13816;53.628;9.950;2023-03-13T06:19:21;6.93;;;2.63;;
26040;SDS011;13816;53.628;9.950;2023-03-13T06:21:48;6.40;;;2.73;;
26040;SDS011;13816;53.628;9.950;2023-03-13T06:24:14;5.20;;;2.70;;
26040;SDS011;13816;53.628;9.950;2023-03-13T06:26:41;11.67;;;2.27;;
26040;SDS011;13816;53.628;9.950;2023-03-13T06:29:07;5.13;;;2.00;;
26040;SDS011;13816;53.628;9.950;2023-03-13T06:31:33;6.67;;;2.30;;
26040;SDS011;13816;53.628;9.950;2023-03-13T06:33:59;7.20;;;2.60;;
26040;SDS011;13816;53.628;9.950;2023-03-13T06:36:25;6.43;;;2.03;;
26040;SDS011;13816;53.628;9.950;2023-03-13T06:38:51;5.87;;;1.80;;
26040;SDS011;13816;53.628;9.950;2023-03-13T06:41:18;7.73;;;2.60;;
26040;SDS011;13816;53.628;9.950;2023-03-13T06:43:44;9.20;;;2.57;;
26040;SDS011;13816;53.628;9.950;2023-03-13T06:46:17;8.90;;;1.80;;
26040;SDS011;13816;53.628;9.950;2023-03-13T06:48:44;4.80;;;1.80;;
26040;SDS011;13816;53.628;9.950;2023-03-13T06:51:14;6.47;;;2.00;;
26040;SDS011;13816;53.628;9.950;2023-03-13T06:53:40;4.73;;;2.20;;
26040;SDS011;13816;53.628;9.950;2023-03-13T06:56:07;5.47;;;2.07;;
26040;SDS011;13816;53.628;9.950;2023-03-13T06:58:33;7.03;;;2.30;;
26040;SDS011;13816;53.628;9.950;2023-03-13T07:01:07;5.17;;;2.03;;
26040;SDS011;13816;53.628;9.950;2023-03-13T07:03:34;6.53;;;2.10;;
26040;SDS011;13816;53.628;9.950;2023-03-13T07:06:00;7.03;;;2.53;;
26040;SDS011;13816;53.628;9.950;2023-03-13T07:08:26;6.90;;;2.40;;
26040;SDS011;13816;53.628;9.950;2023-03-13T07:10:53;6.50;;;2.40;;
26040;SDS011;13816;53.628;9.950;2023-03-13T07:13:19;6.30;;;2.90;;
26040;SDS011;13816;53.628;9.950;2023-03-13T07:15:46;3.60;;;2.00;;
26040;SDS011;13816;53.628;9.950;2023-03-13T07:18:12;6.20;;;3.10;;
26040;SDS011;13816;53.628;9.950;2023-03-13T07:20:39;5.70;;;2.77;;
26040;SDS011;13816;53.628;9.950;2023-03-13T07:23:05;9.17;;;2.57;;
26040;SDS011;13816;53.628;9.950;2023-03-13T07:25:31;8.00;;;3.23;;
26040;SDS011;13816;53.628;9.950;2023-03-13T07:27:57;8.60;;;2.77;;
26040;SDS011;13816;53.628;9.950;2023-03-13T07:30:25;5.60;;;2.83;;
26040;SDS011;13816;53.628;9.950;2023-03-13T07:32:52;4.90;;;3.50;;
26040;SDS011;13816;53.628;9.950;2023-03-13T07:35:18;6.63;;;3.73;;
26040;SDS011;13816;53.628;9.950;2023-03-13T07:37:44;4.27;;;3.10;;
26040;SDS011;13816;53.628;9.950;2023-03-13T07:40:10;9.47;;;3.40;;
26040;SDS011;13816;53.628;9.950;2023-03-13T07:42:40;4.43;;;3.43;;
26040;SDS011;13816;53.628;9.950;2023-03-13T07:45:07;4.80;;;3.97;;
26040;SDS011;13816;53.628;9.950;2023-03-13T07:47:33;4.87;;;2.93;;
26040;SDS011;13816;53.628;9.950;2023-03-13T07:50:00;7.00;;;3.90;;
26040;SDS011;13816;53.628;9.950;2023-03-13T07:52:26;7.97;;;3.77;;
26040;SDS011;13816;53.628;9.950;2023-03-13T07:54:52;6.77;;;4.03;;
26040;SDS011;13816;53.628;9.950;2023-03-13T07:57:19;10.20;;;3.53;;
26040;SDS011;13816;53.628;9.950;2023-03-13T07:59:45;7.07;;;3.53;;
26040;SDS011;13816;53.628;9.950;2023-03-13T08:02:12;4.97;;;3.50;;
26040;SDS011;13816;53.628;9.950;2023-03-13T08:04:38;6.97;;;4.33;;
26040;SDS011;13816;53.628;9.950;2023-03-13T08:07:08;5.33;;;3.53;;
26040;SDS011;13816;53.628;9.950;2023-03-13T08:09:34;9.20;;;4.90;;
26040;SDS011;13816;53.628;9.950;2023-03-13T08:12:00;4.00;;;3.60;;
26040;SDS011;13816;53.628;9.950;2023-03-13T08:14:27;8.30;;;4.10;;
26040;SDS011;13816;53.628;9.950;2023-03-13T08:16:53;7.90;;;5.00;;
26040;SDS011;13816;53.628;9.950;2023-03-13T08:19:19;6.37;;;3.93;;
26040;SDS011;13816;53.628;9.950;2023-03-13T08:21:45;7.40;;;4.57;;
26040;SDS011;13816;53.628;9.950;2023-03-13T08:24:11;8.30;;;4.90;;
26040;SDS011;13816;53.628;9.950;2023-03-13T08:26:38;6.50;;;4.10;;
26040;SDS011;13816;53.628;9.950;2023-03-13T08:29:06;5.67;;;4.53;;
26040;SDS011;13816;53.628;9.950;2023-03-13T08:31:37;6.20;;;5.10;;
26040;SDS011;13816;53.628;9.950;2023-03-13T08:34:03;6.17;;;4.70;;
26040;SDS011;13816;53.628;9.950;2023-03-13T08:36:36;10.67;;;4.70;;
26040;SDS011;13816;53.628;9.950;2023-03-13T08:39:12;7.43;;;4.50;;
26040;SDS011;13816;53.628;9.950;2023-03-13T08:41:38;5.03;;;4.60;;
26040;SDS011;13816;53.628;9.950;2023-03-13T08:44:06;7.67;;;4.90;;
26040;SDS011;13816;53.628;9.950;2023-03-13T08:46:33;8.17;;;5.20;;
26040;SDS011;13816;53.628;9.950;2023-03-13T08:49:00;7.00;;;5.27;;
26040;SDS011;13816;53.628;9.950;2023-03-13T08:51:27;8.40;;;5.47;;
26040;SDS011;13816;53.628;9.950;2023-03-13T08:53:56;7.13;;;4.80;;
26040;SDS011;13816;53.628;9.950;2023-03-13T08:56:24;6.43;;;5.07;;
26040;SDS011;13816;53.628;9.950;2023-03-13T08:58:51;9.67;;;6.50;;
26040;SDS011;13816;53.628;9.950;2023-03-13T09:01:21;6.27;;;5.67;;
26040;SDS011;13816;53.628;9.950;2023-03-13T09:03:48;9.80;;;7.03;;
26040;SDS011;13816;53.628;9.950;2023-03-13T09:06:14;6.97;;;5.73;;
26040;SDS011;13816;53.628;9.950;2023-03-13T09:08:40;16.53;;;6.57;;
26040;SDS011;13816;53.628;9.950;2023-03-13T09:11:17;7.20;;;6.50;;
26040;SDS011;13816;53.628;9.950;2023-03-13T09:13:46;7.60;;;6.07;;
26040;SDS011;13816;53.628;9.950;2023-03-13T09:16:13;9.50;;;7.23;;
26040;SDS011;13816;53.628;9.950;2023-03-13T09:18:46;6.30;;;5.70;;
26040;SDS011;13816;53.628;9.950;2023-03-13T09:21:14;11.40;;;6.47;;
26040;SDS011;13816;53.628;9.950;2023-03-13T09:23:43;9.37;;;6.90;;
26040;SDS011;13816;53.628;9.950;2023-03-13T09:26:13;14.27;;;7.33;;
26040;SDS011;13816;53.628;9.950;2023-03-13T09:28:39;12.20;;;7.77;;
26040;SDS011;13816;53.628;9.950;2023-03-13T09:31:12;9.80;;;7.33;;
26040;SDS011;13816;53.628;9.950;2023-03-13T09:33:39;9.43;;;7.23;;
26040;SDS011;13816;53.628;9.950;2023-03-13T09:36:06;10.50;;;7.00;;
26040;SDS011;13816;53.628;9.950;2023-03-13T09:38:33;12.30;;;6.73;;
26040;SDS011;13816;53.628;9.950;2023-03-13T09:41:20;9.00;;;6.80;;
26040;SDS011;13816;53.628;9.950;2023-03-13T09:48:49;10.70;;;7.50;;
26040;SDS011;13816;53.628;9.950;2023-03-13T09:51:31;11.33;;;7.37;;
26040;SDS011;13816;53.628;9.950;2023-03-13T09:54:05;8.73;;;7.30;;
26040;SDS011;13816;53.628;9.950;2023-03-13T09:56:46;9.10;;;7.47;;
26040;SDS011;13816;53.628;9.950;2023-03-13T09:59:17;9.70;;;6.50;;
26040;SDS011;13816;53.628;9.950;2023-03-13T10:01:45;8.63;;;6.43;;
26040;SDS011;13816;53.628;9.950;2023-03-13T10:06:44;9.70;;;6.57;;
26040;SDS011;13816;53.628;9.950;2023-03-13T10:09:18;12.90;;;8.90;;
26040;SDS011;13816;53.628;9.950;2023-03-13T10:11:55;10.77;;;7.23;;
26040;SDS011;13816;53.628;9.950;2023-03-13T10:14:34;9.73;;;7.37;;
26040;SDS011;13816;53.628;9.950;2023-03-13T10:17:06;13.33;;;7.80;;
26040;SDS011;13816;53.628;9.950;2023-03-13T10:19:36;10.47;;;7.50;;
26040;SDS011;13816;53.628;9.950;2023-03-13T10:22:03;9.00;;;7.00;;
26040;SDS011;13816;53.628;9.950;2023-03-13T10:27:18;7.37;;;6.50;;
26040;SDS011;13816;53.628;9.950;2023-03-13T10:29:44;11.50;;;6.93;;
26040;SDS011;13816;53.628;9.950;2023-03-13T10:32:11;10.90;;;6.67;;
26040;SDS011;13816;53.628;9.950;2023-03-13T10:34:48;13.73;;;7.03;;
26040;SDS011;13816;53.628;9.950;2023-03-13T10:37:16;8.77;;;5.93;;
26040;SDS011;13816;53.628;9.950;2023-03-13T10:39:45;9.33;;;5.80;;
26040;SDS011;13816;53.628;9.950;2023-03-13T10:44:43;10.43;;;5.77;;
26040;SDS011;13816;53.628;9.950;2023-03-13T10:47:11;8.00;;;5.40;;
26040;SDS011;13816;53.628;9.950;2023-03-13T10:49:45;7.07;;;4.93;;
26040;SDS011;13816;53.628;9.950;2023-03-13T10:52:21;8.80;;;5.17;;
26040;SDS011;13816;53.628;9.950;2023-03-13T10:54:52;7.70;;;4.10;;
26040;SDS011;13816;53.628;9.950;2023-03-13T10:59:50;7.20;;;4.80;;
26040;SDS011;13816;53.628;9.950;2023-03-13T11:04:43;9.87;;;5.37;;
26040;SDS011;13816;53.628;9.950;2023-03-13T11:07:27;8.50;;;5.07;;
26040;SDS011;13816;53.628;9.950;2023-03-13T11:09:58;8.60;;;4.27;;
26040;SDS011;13816;53.628;9.950;2023-03-13T11:12:24;6.13;;;4.53;;
26040;SDS011;13816;53.628;9.950;2023-03-13T11:15:02;8.77;;;3.67;;
26040;SDS011;13816;53.628;9.950;2023-03-13T11:17:37;7.10;;;3.70;;
26040;SDS011;13816;53.628;9.950;2023-03-13T11:20:23;7.60;;;4.23;;
26040;SDS011;13816;53.628;9.950;2023-03-13T11:22:58;4.60;;;3.97;;
26040;SDS011;13816;53.628;9.950;2023-03-13T11:25:38;13.97;;;4.13;;
26040;SDS011;13816;53.628;9.950;2023-03-13T11:28:14;6.10;;;3.13;;
26040;SDS011;13816;53.628;9.950;2023-03-13T11:36:24;5.30;;;2.70;;
26040;SDS011;13816;53.628;9.950;2023-03-13T11:45:00;7.50;;;2.27;;
26040;SDS011;13816;53.628;9.950;2023-03-13T11:47:40;9.77;;;2.60;;
26040;SDS011;13816;53.628;9.950;2023-03-13T12:01:39;3.87;;;2.13;;
26040;SDS011;13816;53.628;9.950;2023-03-13T12:04:13;3.57;;;2.00;;
26040;SDS011;13816;53.628;9.950;2023-03-13T12:06:43;5.50;;;1.83;;
26040;SDS011;13816;53.628;9.950;2023-03-13T12:09:17;6.13;;;2.00;;
26040;SDS011;13816;53.628;9.950;2023-03-13T12:11:54;5.60;;;2.20;;
26040;SDS011;13816;53.628;9.950;2023-03-13T12:14:46;2.97;;;2.00;;
26040;SDS011;13816;53.628;9.950;2023-03-13T12:17:34;5.73;;;2.33;;
26040;SDS011;13816;53.628;9.950;2023-03-13T12:20:03;6.60;;;1.93;;
26040;SDS011;13816;53.628;9.950;2023-03-13T12:25:44;8.63;;;2.33;;
26040;SDS011;13816;53.628;9.950;2023-03-13T12:28:28;7.73;;;1.97;;
26040;SDS011;13816;53.628;9.950;2023-03-13T12:34:25;4.30;;;1.97;;
26040;SDS011;13816;53.628;9.950;2023-03-13T12:36:34;4.70;;;2.03;;
26040;SDS011;13816;53.628;9.950;2023-03-13T12:39:17;3.03;;;1.73;;
26040;SDS011;13816;53.628;9.950;2023-03-13T12:41:53;2.83;;;1.83;;
26040;SDS011;13816;53.628;9.950;2023-03-13T12:44:22;5.70;;;1.93;;
26040;SDS011;13816;53.628;9.950;2023-03-13T12:46:57;3.77;;;1.93;;
26040;SDS011;13816;53.628;9.950;2023-03-13T13:29:51;6.50;;;2.40;;
26040;SDS011;13816;53.628;9.950;2023-03-13T13:49:38;3.23;;;1.50;;
26040;SDS011;13816;53.628;9.950;2023-03-13T13:55:47;3.33;;;1.30;;
26040;SDS011;13816;53.628;9.950;2023-03-13T14:01:44;1.90;;;1.40;;
26040;SDS011;13816;53.628;9.950;2023-03-13T14:10:11;4.10;;;1.50;;
26040;SDS011;13816;53.628;9.950;2023-03-13T14:12:52;6.53;;;2.50;;
26040;SDS011;13816;53.628;9.950;2023-03-13T14:15:26;3.43;;;2.10;;
26040;SDS011;13816;53.628;9.950;2023-03-13T14:17:54;2.10;;;1.40;;
26040;SDS011;13816;53.628;9.950;2023-03-13T14:23:36;3.40;;;1.73;;
26040;SDS011;13816;53.628;9.950;2023-03-13T14:26:29;5.37;;;1.40;;
26040;SDS011;13816;53.628;9.950;2023-03-13T14:29:32;2.63;;;1.40;;
26040;SDS011;13816;53.628;9.950;2023-03-13T14:32:07;4.60;;;1.80;;
26040;SDS011;13816;53.628;9.950;2023-03-13T14:34:34;2.90;;;1.63;;
26040;SDS011;13816;53.628;9.950;2023-03-13T14:37:03;3.80;;;1.50;;
26040;SDS011;13816;53.628;9.950;2023-03-13T14:39:49;6.50;;;2.60;;
26040;SDS011;13816;53.628;9.950;2023-03-13T14:42:16;4.70;;;1.80;;
26040;SDS011;13816;53.628;9.950;2023-03-13T14:44:42;7.40;;;2.57;;
26040;SDS011;13816;53.628;9.950;2023-03-13T14:47:29;4.73;;;1.70;;
26040;SDS011;13816;53.628;9.950;2023-03-13T14:50:08;4.30;;;1.70;;
26040;SDS011;13816;53.628;9.950;2023-03-13T14:52:43;3.20;;;1.57;;
26040;SDS011;13816;53.628;9.950;2023-03-13T14:57:59;4.77;;;2.10;;
26040;SDS011;13816;53.628;9.950;2023-03-13T15:00:42;4.43;;;2.20;;
26040;SDS011;13816;53.628;9.950;2023-03-13T15:05:49;2.90;;;1.70;;
26040;SDS011;13816;53.628;9.950;2023-03-13T15:08:29;2.70;;;1.47;;
26040;SDS011;13816;53.628;9.950;2023-03-13T15:10:58;3.80;;;1.90;;
26040;SDS011;13816;53.628;9.950;2023-03-13T15:13:43;9.00;;;1.73;;
26040;SDS011;13816;53.628;9.950;2023-03-13T15:16:30;4.80;;;1.70;;
26040;SDS011;13816;53.628;9.950;2023-03-13T15:19:03;2.60;;;1.80;;
26040;SDS011;13816;53.628;9.950;2023-03-13T15:21:30;3.40;;;1.50;;
26040;SDS011;13816;53.628;9.950;2023-03-13T15:24:15;4.70;;;1.47;;
26040;SDS011;13816;53.628;9.950;2023-03-13T15:26:44;6.63;;;2.80;;
26040;SDS011;13816;53.628;9.950;2023-03-13T15:29:14;2.80;;;1.30;;
26040;SDS011;13816;53.628;9.950;2023-03-13T15:31:42;3.80;;;2.00;;
26040;SDS011;13816;53.628;9.950;2023-03-13T15:34:12;5.97;;;1.70;;
26040;SDS011;13816;53.628;9.950;2023-03-13T15:36:39;7.00;;;1.60;;
26040;SDS011;13816;53.628;9.950;2023-03-13T15:39:09;3.00;;;1.73;;
26040;SDS011;13816;53.628;9.950;2023-03-13T15:41:38;5.17;;;2.03;;
26040;SDS011;13816;53.628;9.950;2023-03-13T15:44:04;8.90;;;1.60;;
26040;SDS011;13816;53.628;9.950;2023-03-13T15:46:31;2.67;;;1.40;;
26040;SDS011;13816;53.628;9.950;2023-03-13T15:48:57;3.20;;;1.70;;
26040;SDS011;13816;53.628;9.950;2023-03-13T15:51:23;3.93;;;1.80;;
26040;SDS011;13816;53.628;9.950;2023-03-13T15:53:49;5.90;;;2.80;;
26040;SDS011;13816;53.628;9.950;2023-03-13T15:56:18;6.20;;;1.63;;
26040;SDS011;13816;53.628;9.950;2023-03-13T15:58:47;4.43;;;1.60;;
26040;SDS011;13816;53.628;9.950;2023-03-13T16:01:21;2.50;;;1.47;;
26040;SDS011;13816;53.628;9.950;2023-03-13T16:03:48;5.10;;;1.67;;
26040;SDS011;13816;53.628;9.950;2023-03-13T16:08:43;3.83;;;1.70;;
26040;SDS011;13816;53.628;9.950;2023-03-13T16:11:18;6.20;;;1.87;;
26040;SDS011;13816;53.628;9.950;2023-03-13T16:13:47;2.27;;;1.60;;
26040;SDS011;13816;53.628;9.950;2023-03-13T16:16:17;2.83;;;1.40;;
26040;SDS011;13816;53.628;9.950;2023-03-13T16:18:45;4.77;;;1.40;;
26040;SDS011;13816;53.628;9.950;2023-03-13T16:21:14;3.67;;;1.87;;
26040;SDS011;13816;53.628;9.950;2023-03-13T16:23:42;4.10;;;1.90;;
26040;SDS011;13816;53.628;9.950;2023-03-13T16:26:11;3.00;;;1.43;;
26040;SDS011;13816;53.628;9.950;2023-03-13T16:28:43;2.40;;;1.30;;
26040;SDS011;13816;53.628;9.950;2023-03-13T16:31:20;4.87;;;1.97;;
26040;SDS011;13816;53.628;9.950;2023-03-13T16:33:47;4.07;;;1.70;;
26040;SDS011;13816;53.628;9.950;2023-03-13T16:36:26;5.87;;;1.97;;
26040;SDS011;13816;53.628;9.950;2023-03-13T16:38:59;5.70;;;1.80;;
26040;SDS011;13816;53.628;9.950;2023-03-13T16:41:26;3.07;;;1.50;;
26040;SDS011;13816;53.628;9.950;2023-03-13T16:43:52;4.73;;;1.70;;
26040;SDS011;13816;53.628;9.950;2023-03-13T16:46:32;3.33;;;1.37;;
26040;SDS011;13816;53.628;9.950;2023-03-13T16:49:01;3.17;;;1.53;;
26040;SDS011;13816;53.628;9.950;2023-03-13T16:51:30;3.83;;;1.67;;
26040;SDS011;13816;53.628;9.950;2023-03-13T16:53:57;6.57;;;1.40;;
26040;SDS011;13816;53.628;9.950;2023-03-13T16:56:34;5.50;;;1.37;;
26040;SDS011;13816;53.628;9.950;2023-03-13T16:59:04;10.63;;;1.70;;
26040;SDS011;13816;53.628;9.950;2023-03-13T17:01:31;6.33;;;1.70;;
26040;SDS011;13816;53.628;9.950;2023-03-13T17:03:57;6.00;;;1.73;;
26040;SDS011;13816;53.628;9.950;2023-03-13T17:06:28;7.20;;;1.60;;
26040;SDS011;13816;53.628;9.950;2023-03-13T17:08:54;4.37;;;1.70;;
26040;SDS011;13816;53.628;9.950;2023-03-13T17:11:22;3.60;;;1.50;;
26040;SDS011;13816;53.628;9.950;2023-03-13T17:13:51;4.10;;;1.77;;
26040;SDS011;13816;53.628;9.950;2023-03-13T17:16:20;4.93;;;2.10;;
26040;SDS011;13816;53.628;9.950;2023-03-13T17:18:47;7.40;;;1.87;;
26040;SDS011;13816;53.628;9.950;2023-03-13T17:21:18;5.57;;;2.60;;
26040;SDS011;13816;53.628;9.950;2023-03-13T17:23:44;4.23;;;2.00;;